createdAt,value
2022-09-16T00:01:39.066Z,16.08
2022-09-16T00:04:11.014Z,16.15
2022-09-16T00:06:43.381Z,16.14
2022-09-16T00:09:15.370Z,16.16
2022-09-16T00:11:47.302Z,16.12
2022-09-16T00:14:19.227Z,16.13
2022-09-16T00:16:51.297Z,15.99
2022-09-16T00:19:23.214Z,15.95
2022-09-16T00:21:55.357Z,15.95
2022-09-16T00:24:28.410Z,15.94
2022-09-16T00:27:00.427Z,15.96
2022-09-16T00:29:33.327Z,15.94
2022-09-16T00:32:06.280Z,15.81
2022-09-16T00:34:38.291Z,15.71
2022-09-16T00:37:10.481Z,15.64
2022-09-16T00:39:42.477Z,15.66
2022-09-16T00:42:18.786Z,15.72
2022-09-16T00:45:03.053Z,15.71
2022-09-16T00:47:38.299Z,15.57
2022-09-16T00:50:15.840Z,15.60
2022-09-16T00:52:48.917Z,15.48
2022-09-16T00:55:25.183Z,15.52
2022-09-16T00:58:03.102Z,15.50
2022-09-16T01:00:35.301Z,15.56
2022-09-16T01:03:08.540Z,15.57
2022-09-16T01:05:41.474Z,15.60
2022-09-16T01:08:14.060Z,15.55
2022-09-16T01:10:46.091Z,15.51
2022-09-16T01:13:18.587Z,15.42
2022-09-16T01:15:56.856Z,15.42
2022-09-16T01:18:39.829Z,15.36
2022-09-16T01:21:22.711Z,15.33
2022-09-16T01:24:07.963Z,15.37
2022-09-16T01:26:58.309Z,15.27
2022-09-16T01:29:57.103Z,15.28
2022-09-16T01:32:34.322Z,15.24
2022-09-16T01:35:16.982Z,15.34
2022-09-16T01:37:58.181Z,15.45
2022-09-16T01:40:34.519Z,15.38
2022-09-16T01:43:15.042Z,15.30
2022-09-16T01:45:54.639Z,15.28
2022-09-16T01:48:34.525Z,15.26
2022-09-16T01:51:15.586Z,15.23
2022-09-16T01:53:55.692Z,15.23
2022-09-16T01:56:34.283Z,15.18
2022-09-16T01:59:10.574Z,15.18
2022-09-16T02:01:47.980Z,15.15
2022-09-16T02:04:24.427Z,15.07
2022-09-16T02:06:58.272Z,15.03
2022-09-16T02:09:35.167Z,15.03
2022-09-16T02:12:11.516Z,15.09
2022-09-16T02:14:46.660Z,14.98
2022-09-16T02:17:22.285Z,14.93
2022-09-16T02:20:01.446Z,14.92
2022-09-16T02:22:38.080Z,14.86
2022-09-16T02:25:12.816Z,15.03
2022-09-16T02:27:44.790Z,15.13
2022-09-16T02:30:19.935Z,15.14
2022-09-16T02:32:56.496Z,15.12
2022-09-16T02:35:31.518Z,14.94
2022-09-16T02:38:08.319Z,14.97
2022-09-16T02:40:48.103Z,15.07
2022-09-16T02:43:21.497Z,14.97
2022-09-16T02:46:01.096Z,14.99
2022-09-16T02:48:39.419Z,15.03
2022-09-16T02:51:19.575Z,15.06
2022-09-16T02:53:59.417Z,14.93
2022-09-16T02:56:35.986Z,14.92
2022-09-16T02:59:11.615Z,14.80
2022-09-16T03:01:45.599Z,14.90
2022-09-16T03:04:20.591Z,14.84
2022-09-16T03:06:52.930Z,14.84
2022-09-16T03:09:29.946Z,14.90
2022-09-16T03:12:20.708Z,14.84
2022-09-16T03:15:10.953Z,14.89
2022-09-16T03:18:16.915Z,14.85
2022-09-16T03:21:00.109Z,14.75
2022-09-16T03:23:44.817Z,14.72
2022-09-16T03:26:22.387Z,14.78
2022-09-16T03:29:05.051Z,14.82
2022-09-16T03:31:45.973Z,14.73
2022-09-16T03:34:24.606Z,14.59
2022-09-16T03:37:02.839Z,14.52
2022-09-16T03:39:35.953Z,14.59
2022-09-16T03:42:11.497Z,14.37
2022-09-16T03:44:43.698Z,14.48
2022-09-16T03:47:16.475Z,14.55
2022-09-16T03:49:48.937Z,14.63
2022-09-16T03:52:21.370Z,14.63
2022-09-16T03:54:53.289Z,14.63
2022-09-16T03:57:27.622Z,14.65
2022-09-16T03:59:59.735Z,14.79
2022-09-16T04:02:32.089Z,14.76
2022-09-16T04:05:04.433Z,14.64
2022-09-16T04:07:37.101Z,14.58
2022-09-16T04:10:12.535Z,14.57
2022-09-16T04:12:45.099Z,14.54
2022-09-16T04:15:17.206Z,14.58
2022-09-16T04:17:49.688Z,14.64
2022-09-16T04:20:21.894Z,14.53
2022-09-16T04:22:53.920Z,14.39
2022-09-16T04:25:25.869Z,14.43
2022-09-16T04:27:57.869Z,14.42
2022-09-16T04:30:30.448Z,14.50
2022-09-16T04:33:02.447Z,14.63
2022-09-16T04:35:34.667Z,14.56
2022-09-16T04:38:06.774Z,14.55
2022-09-16T04:40:40.274Z,14.53
2022-09-16T04:43:12.283Z,14.54
2022-09-16T04:45:44.247Z,14.50
2022-09-16T04:48:18.208Z,14.69
2022-09-16T04:50:50.763Z,14.66
2022-09-16T04:53:23.138Z,14.56
2022-09-16T04:55:55.067Z,14.45
2022-09-16T04:58:27.212Z,14.46
2022-09-16T05:01:04.317Z,14.47
2022-09-16T05:03:36.616Z,14.37
2022-09-16T05:06:11.348Z,14.49
2022-09-16T05:08:44.020Z,14.47
2022-09-16T05:11:18.093Z,14.57
2022-09-16T05:13:50.352Z,14.52
2022-09-16T05:16:24.530Z,14.42
2022-09-16T05:18:58.266Z,14.69
2022-09-16T05:21:33.118Z,14.61
2022-09-16T05:24:04.411Z,14.55
2022-09-16T05:26:38.151Z,14.53
2022-09-16T05:29:12.700Z,14.47
2022-09-16T05:31:47.689Z,14.51
2022-09-16T05:34:23.314Z,14.70
2022-09-16T05:36:55.820Z,14.75
2022-09-16T05:39:28.962Z,14.75
2022-09-16T05:42:03.388Z,14.76
2022-09-16T05:44:35.389Z,14.79
2022-09-16T05:47:07.698Z,14.83
2022-09-16T05:49:39.619Z,14.60
2022-09-16T05:52:11.683Z,14.61
2022-09-16T05:54:43.671Z,14.72
2022-09-16T05:57:15.733Z,14.66
2022-09-16T05:59:47.943Z,14.65
2022-09-16T06:02:20.477Z,14.75
2022-09-16T06:04:53.369Z,14.78
2022-09-16T06:07:25.261Z,14.77
2022-09-16T06:09:57.461Z,14.88
2022-09-16T06:12:29.942Z,14.78
2022-09-16T06:15:02.316Z,14.48
2022-09-16T06:17:34.312Z,14.48
2022-09-16T06:20:07.781Z,14.53
2022-09-16T06:22:40.108Z,14.61
2022-09-16T06:25:12.521Z,14.60
2022-09-16T06:27:44.578Z,14.42
2022-09-16T06:30:16.917Z,14.61
2022-09-16T06:32:48.881Z,14.70
2022-09-16T06:35:20.885Z,14.66
2022-09-16T06:37:52.869Z,14.56
2022-09-16T06:40:25.089Z,14.67
2022-09-16T06:43:00.183Z,14.78
2022-09-16T06:45:32.421Z,14.72
2022-09-16T06:48:04.899Z,14.70
2022-09-16T06:50:36.945Z,14.66
2022-09-16T06:53:09.207Z,14.70
2022-09-16T06:55:41.359Z,14.78
2022-09-16T06:58:13.584Z,14.92
2022-09-16T07:00:46.004Z,14.97
2022-09-16T07:03:18.244Z,14.92
2022-09-16T07:06:00.467Z,14.85
2022-09-16T07:08:33.777Z,15.14
2022-09-16T07:11:08.336Z,15.17
2022-09-16T07:13:41.268Z,15.21
2022-09-16T07:16:15.737Z,15.13
2022-09-16T07:18:48.551Z,15.27
2022-09-16T07:21:22.883Z,15.29
2022-09-16T07:23:58.234Z,15.24
2022-09-16T07:26:32.045Z,15.48
2022-09-16T07:29:07.917Z,15.57
2022-09-16T07:31:41.049Z,15.52
2022-09-16T07:34:13.914Z,15.58
2022-09-16T07:36:49.475Z,15.67
2022-09-16T07:39:22.441Z,15.65
2022-09-16T07:41:54.776Z,15.53
2022-09-16T07:44:28.642Z,15.81
2022-09-16T07:47:00.732Z,15.76
2022-09-16T07:49:33.013Z,15.70
2022-09-16T07:52:05.249Z,15.85
2022-09-16T07:54:37.501Z,15.65
2022-09-16T07:57:09.609Z,15.93
2022-09-16T07:59:41.610Z,15.94
2022-09-16T08:02:13.947Z,16.13
2022-09-16T08:04:46.543Z,16.18
2022-09-16T08:07:18.551Z,16.22
2022-09-16T08:09:53.035Z,16.15
2022-09-16T08:12:26.177Z,15.96
2022-09-16T08:14:58.332Z,16.19
2022-09-16T08:17:33.366Z,16.23
2022-09-16T08:20:07.310Z,16.16
2022-09-16T08:22:39.441Z,16.35
2022-09-16T08:25:11.917Z,16.48
2022-09-16T08:27:43.967Z,16.28
2022-09-16T08:30:15.999Z,16.26
2022-09-16T08:32:48.724Z,16.33
2022-09-16T08:35:20.709Z,16.63
2022-09-16T08:37:52.913Z,16.58
2022-09-16T08:40:26.895Z,16.54
2022-09-16T08:43:05.734Z,16.62
2022-09-16T08:45:45.297Z,16.50
2022-09-16T08:48:30.583Z,16.59
2022-09-16T08:51:03.989Z,16.58
2022-09-16T08:53:41.254Z,16.71
2022-09-16T08:56:19.751Z,16.88
2022-09-16T08:58:55.569Z,16.84
2022-09-16T09:01:35.694Z,17.03
2022-09-16T09:04:08.192Z,16.89
2022-09-16T09:06:59.838Z,16.97
2022-09-16T09:09:44.704Z,16.95
2022-09-16T09:12:23.370Z,17.04
2022-09-16T09:15:07.904Z,17.10
2022-09-16T09:17:51.335Z,16.91
2022-09-16T09:20:35.172Z,16.95
2022-09-16T09:23:25.597Z,17.03
2022-09-16T09:26:05.469Z,17.12
2022-09-16T09:29:12.835Z,17.23
2022-09-16T09:31:54.338Z,17.28
2022-09-16T09:34:47.945Z,17.31
2022-09-16T09:37:35.703Z,17.50
2022-09-16T09:40:16.759Z,17.37
2022-09-16T09:42:54.473Z,17.41
2022-09-16T09:45:31.035Z,17.18
2022-09-16T09:48:12.094Z,16.94
2022-09-16T09:50:46.290Z,16.91
2022-09-16T09:53:26.129Z,17.13
2022-09-16T09:56:08.251Z,17.42
2022-09-16T09:58:45.331Z,17.40
2022-09-16T10:01:19.950Z,17.35
2022-09-16T10:03:56.263Z,17.30
2022-09-16T10:06:34.385Z,17.30
2022-09-16T10:09:06.807Z,17.44
2022-09-16T10:11:49.129Z,17.37
2022-09-16T10:14:32.639Z,17.32
2022-09-16T10:17:06.937Z,17.44
2022-09-16T10:19:51.452Z,17.51
2022-09-16T10:22:28.200Z,17.17
2022-09-16T10:25:02.015Z,17.13
2022-09-16T10:27:36.781Z,17.10
2022-09-16T10:30:19.114Z,17.37
2022-09-16T10:32:56.647Z,17.81
2022-09-16T10:35:30.724Z,17.83
2022-09-16T10:38:07.134Z,18.14
2022-09-16T10:40:39.495Z,18.04
2022-09-16T10:43:17.559Z,18.13
2022-09-16T10:45:52.814Z,18.42
2022-09-16T10:48:30.976Z,18.48
2022-09-16T10:51:05.014Z,18.58
2022-09-16T10:53:40.884Z,18.59
2022-09-16T10:56:22.139Z,18.57
2022-09-16T10:59:07.161Z,18.40
2022-09-16T11:01:51.391Z,18.08
2022-09-16T11:05:01.787Z,17.86
2022-09-16T11:07:45.004Z,18.11
2022-09-16T11:10:25.355Z,18.32
2022-09-16T11:13:24.729Z,18.67
2022-09-16T11:16:13.113Z,18.57
2022-09-16T11:18:55.337Z,18.36
2022-09-16T11:21:44.889Z,18.46
2022-09-16T11:24:52.191Z,18.71
2022-09-16T11:27:39.160Z,18.81
2022-09-16T11:30:17.171Z,18.70
2022-09-16T11:33:22.446Z,18.72
2022-09-16T11:36:24.214Z,18.52
2022-09-16T11:39:05.830Z,18.38
2022-09-16T11:41:42.700Z,18.27
2022-09-16T11:44:31.391Z,17.91
2022-09-16T11:47:18.101Z,17.87
2022-09-16T11:50:05.041Z,18.39
2022-09-16T11:52:51.918Z,18.37
2022-09-16T11:55:37.391Z,18.27
2022-09-16T11:58:21.495Z,18.23
2022-09-16T12:00:57.260Z,18.24
2022-09-16T12:03:37.394Z,18.62
2022-09-16T12:06:15.703Z,18.25
2022-09-16T12:09:02.624Z,18.26
2022-09-16T12:11:40.794Z,18.08
2022-09-16T12:14:19.540Z,18.08
2022-09-16T12:16:57.240Z,17.79
2022-09-16T12:19:35.036Z,17.86
2022-09-16T12:22:11.350Z,17.95
2022-09-16T12:24:48.428Z,18.27
2022-09-16T12:27:34.881Z,18.46
2022-09-16T12:30:15.116Z,18.48
2022-09-16T12:32:58.246Z,18.61
2022-09-16T12:35:35.608Z,18.73
2022-09-16T12:38:13.554Z,18.82
2022-09-16T12:41:04.231Z,19.07
2022-09-16T12:43:52.405Z,19.15
2022-09-16T12:47:04.830Z,19.23
2022-09-16T12:49:58.356Z,19.08
2022-09-16T12:52:42.257Z,19.57
2022-09-16T12:55:52.743Z,19.68
2022-09-16T12:58:48.972Z,19.23
2022-09-16T13:01:26.187Z,19.08
2022-09-16T13:04:03.304Z,19.03
2022-09-16T13:06:38.737Z,18.76
2022-09-16T13:09:22.616Z,19.14
2022-09-16T13:14:55.323Z,19.29
2022-09-16T13:17:35.287Z,19.48
2022-09-16T13:20:18.338Z,19.56
2022-09-16T13:23:00.499Z,19.27
2022-09-16T13:25:36.124Z,19.49
2022-09-16T13:28:26.586Z,19.48
2022-09-16T13:31:10.062Z,19.23
2022-09-16T13:33:44.484Z,19.00
2022-09-16T13:36:31.095Z,18.80
2022-09-16T13:39:05.247Z,18.77
2022-09-16T13:41:41.500Z,18.51
2022-09-16T13:44:41.765Z,18.39
2022-09-16T13:47:31.871Z,18.09
2022-09-16T13:50:13.620Z,17.86
2022-09-16T13:52:46.486Z,17.78
2022-09-16T13:55:25.246Z,17.79
2022-09-16T13:58:04.166Z,17.51
2022-09-16T14:00:45.788Z,17.39
2022-09-16T14:03:38.303Z,17.68
2022-09-16T14:06:42.261Z,17.88
2022-09-16T14:09:29.544Z,17.84
2022-09-16T14:12:10.794Z,18.04
2022-09-16T14:14:47.263Z,18.04
2022-09-16T14:17:24.495Z,18.00
2022-09-16T14:20:03.407Z,17.77
2022-09-16T14:22:36.739Z,17.71
2022-09-16T14:25:32.598Z,17.72
2022-09-16T14:28:18.940Z,17.64
2022-09-16T14:30:56.256Z,17.88
2022-09-16T14:33:33.830Z,17.85
2022-09-16T14:36:13.878Z,17.86
2022-09-16T14:38:49.297Z,17.78
2022-09-16T14:41:28.249Z,17.87
2022-09-16T14:44:08.338Z,17.75
2022-09-16T14:46:45.438Z,17.90
2022-09-16T14:49:18.591Z,17.80
2022-09-16T14:51:53.358Z,17.60
2022-09-16T14:54:24.453Z,17.72
2022-09-16T14:57:05.305Z,17.73
2022-09-16T14:59:40.036Z,17.54
2022-09-16T15:02:21.803Z,17.83
2022-09-16T15:04:57.931Z,17.79
2022-09-16T15:07:34.333Z,17.63
2022-09-16T15:10:15.660Z,17.40
2022-09-16T15:12:53.068Z,17.71
2022-09-16T15:15:28.085Z,17.82
2022-09-16T15:18:03.312Z,17.71
2022-09-16T15:20:40.120Z,17.62
2022-09-16T15:23:24.120Z,17.70
2022-09-16T15:25:59.976Z,17.83
2022-09-16T15:28:32.456Z,17.62
2022-09-16T15:31:05.815Z,17.63
2022-09-16T15:33:42.813Z,17.64
2022-09-16T15:36:35.770Z,17.66
2022-09-16T15:39:23.527Z,17.81
2022-09-16T15:42:12.249Z,17.85
2022-09-16T15:44:51.193Z,17.86
2022-09-16T15:47:25.859Z,17.74
2022-09-16T15:49:59.609Z,17.69
2022-09-16T15:52:36.163Z,17.63
2022-09-16T15:55:09.584Z,17.80
2022-09-16T15:57:44.839Z,17.84
2022-09-16T16:00:17.579Z,17.77
2022-09-16T16:02:55.941Z,17.77
2022-09-16T16:05:30.676Z,17.82
2022-09-16T16:08:06.172Z,17.80
2022-09-16T16:10:42.130Z,17.72
2022-09-16T16:13:14.673Z,17.67
2022-09-16T16:15:46.979Z,17.61
2022-09-16T16:18:19.933Z,17.61
2022-09-16T16:20:51.992Z,17.60
2022-09-16T16:23:24.050Z,17.63
2022-09-16T16:25:56.384Z,17.60
2022-09-16T16:28:28.382Z,17.58
2022-09-16T16:31:13.507Z,17.52
2022-09-16T16:33:48.386Z,17.45
2022-09-16T16:36:22.335Z,17.43
2022-09-16T16:38:54.582Z,17.28
2022-09-16T16:41:27.101Z,17.25
2022-09-16T16:43:59.122Z,17.27
2022-09-16T16:46:31.968Z,17.34
2022-09-16T16:49:04.965Z,17.27
2022-09-16T16:51:36.999Z,17.22
2022-09-16T16:54:09.239Z,17.14
2022-09-16T16:56:41.703Z,17.16
2022-09-16T16:59:14.015Z,17.11
2022-09-16T17:01:48.960Z,17.09
2022-09-16T17:04:21.667Z,17.13
2022-09-16T17:07:14.470Z,17.06
2022-09-16T17:09:46.466Z,16.88
2022-09-16T17:12:18.811Z,16.84
2022-09-16T17:14:51.305Z,16.62
2022-09-16T17:17:26.504Z,16.64
2022-09-16T17:20:01.543Z,16.52
2022-09-16T17:22:34.025Z,16.13
2022-09-16T17:25:06.645Z,16.30
2022-09-16T17:27:38.974Z,16.36
2022-09-16T17:30:13.247Z,16.28
2022-09-16T17:32:46.666Z,16.18
2022-09-16T17:35:19.557Z,16.20
2022-09-16T17:37:51.926Z,16.28
2022-09-16T17:40:24.362Z,16.19
2022-09-16T17:42:56.503Z,16.22
2022-09-16T17:45:28.713Z,16.19
2022-09-16T17:48:01.185Z,16.06
2022-09-16T17:50:33.948Z,16.12
2022-09-16T17:53:06.147Z,16.13
2022-09-16T17:55:38.227Z,15.81
2022-09-16T17:58:10.302Z,15.70
2022-09-16T18:00:42.744Z,15.80
2022-09-16T18:03:15.589Z,15.81
2022-09-16T18:05:49.007Z,15.82
2022-09-16T18:08:21.307Z,15.66
2022-09-16T18:10:56.008Z,15.58
2022-09-16T18:13:28.152Z,15.74
2022-09-16T18:16:04.726Z,15.61
2022-09-16T18:18:37.863Z,15.54
2022-09-16T18:21:14.359Z,15.43
2022-09-16T18:23:46.766Z,15.52
2022-09-16T18:26:19.974Z,15.57
2022-09-16T18:29:11.791Z,15.50
2022-09-16T18:31:48.180Z,15.44
2022-09-16T18:34:21.336Z,15.46
2022-09-16T18:36:54.370Z,15.43
2022-09-16T18:39:27.207Z,15.48
2022-09-16T18:41:59.419Z,15.60
2022-09-16T18:44:32.009Z,15.36
2022-09-16T18:47:03.992Z,15.42
2022-09-16T18:49:36.643Z,15.47
2022-09-16T18:52:08.871Z,15.35
2022-09-16T18:54:41.599Z,15.53
2022-09-16T18:57:14.067Z,15.51
2022-09-16T18:59:47.139Z,15.43
2022-09-16T19:02:19.331Z,15.57
2022-09-16T19:04:51.491Z,15.33
2022-09-16T19:07:28.011Z,15.38
2022-09-16T19:10:00.712Z,15.33
2022-09-16T19:12:39.217Z,15.29
2022-09-16T19:15:13.435Z,15.19
2022-09-16T19:17:48.489Z,15.12
2022-09-16T19:20:20.685Z,15.37
2022-09-16T19:22:52.888Z,15.36
2022-09-16T19:25:25.748Z,15.30
2022-09-16T19:27:57.837Z,15.41
2022-09-16T19:30:30.041Z,15.21
2022-09-16T19:33:02.130Z,15.23
2022-09-16T19:35:34.847Z,15.27
2022-09-16T19:38:07.418Z,15.19
2022-09-16T19:40:39.688Z,15.26
2022-09-16T19:43:12.122Z,15.17
2022-09-16T19:45:44.699Z,15.01
2022-09-16T19:48:16.931Z,15.07
2022-09-16T19:50:54.630Z,15.08
2022-09-16T19:53:29.263Z,15.04
2022-09-16T19:56:04.054Z,15.00
2022-09-16T19:58:38.427Z,15.04
2022-09-16T20:01:13.112Z,14.99
2022-09-16T20:03:45.934Z,15.06
2022-09-16T20:06:20.281Z,14.99
2022-09-16T20:08:58.791Z,15.04
2022-09-16T20:11:32.847Z,14.96
2022-09-16T20:14:07.088Z,14.91
2022-09-16T20:16:40.772Z,14.84
2022-09-16T20:19:17.601Z,14.90
2022-09-16T20:21:49.903Z,14.95
2022-09-16T20:24:23.881Z,14.74
2022-09-16T20:26:58.264Z,14.80
2022-09-16T20:29:31.905Z,14.81
2022-09-16T20:32:04.620Z,14.86
2022-09-16T20:34:36.838Z,14.92
2022-09-16T20:37:09.166Z,14.85
2022-09-16T20:39:41.848Z,14.84
2022-09-16T20:42:14.595Z,14.91
2022-09-16T20:44:49.446Z,14.91
2022-09-16T20:47:21.854Z,14.86
2022-09-16T20:49:54.155Z,14.72
2022-09-16T20:52:26.905Z,14.63
2022-09-16T20:55:05.076Z,14.61
2022-09-16T20:57:37.463Z,14.68
2022-09-16T21:00:13.003Z,14.48
2022-09-16T21:02:45.285Z,14.56
2022-09-16T21:05:18.690Z,14.46
2022-09-16T21:07:51.095Z,14.53
2022-09-16T21:10:24.270Z,14.47
2022-09-16T21:12:58.164Z,14.47
2022-09-16T21:15:31.660Z,14.53
2022-09-16T21:18:03.620Z,14.59
2022-09-16T21:20:38.088Z,14.47
2022-09-16T21:27:57.626Z,14.52
2022-09-16T21:30:30.689Z,14.64
2022-09-16T21:33:02.702Z,14.58
2022-09-16T21:35:40.310Z,14.67
2022-09-16T21:38:18.828Z,14.58
2022-09-16T21:48:21.222Z,14.55
2022-09-16T21:50:54.751Z,14.55
2022-09-16T21:53:28.512Z,14.47
2022-09-16T21:56:04.893Z,14.43
2022-09-16T21:58:37.757Z,14.53
2022-09-16T22:01:12.308Z,14.55
2022-09-16T22:03:47.482Z,14.48
2022-09-16T22:06:22.389Z,14.45
2022-09-16T22:08:56.962Z,14.33
2022-09-16T22:11:30.994Z,14.36
2022-09-16T22:14:04.823Z,14.38
2022-09-16T22:16:38.632Z,14.43
2022-09-16T22:19:12.344Z,14.33
2022-09-16T22:21:46.188Z,14.38
2022-09-16T22:24:20.678Z,14.31
2022-09-16T22:26:55.380Z,14.33
2022-09-16T22:29:27.651Z,14.26
2022-09-16T22:32:00.861Z,14.18
2022-09-16T22:34:35.566Z,14.24
2022-09-16T22:37:09.508Z,14.34
2022-09-16T22:39:42.650Z,14.29
2022-09-16T22:42:15.179Z,14.25
2022-09-16T22:44:51.509Z,14.25
2022-09-16T22:47:28.496Z,14.25
2022-09-16T22:50:02.092Z,14.26
2022-09-16T22:52:35.303Z,14.17
2022-09-16T22:55:10.385Z,14.29
2022-09-16T22:57:43.629Z,14.25
2022-09-16T23:00:16.936Z,14.20
2022-09-16T23:02:48.912Z,14.13
2022-09-16T23:05:20.822Z,14.16
2022-09-16T23:10:53.115Z,14.05
2022-09-16T23:13:27.111Z,14.07
2022-09-16T23:16:04.065Z,14.00
2022-09-16T23:18:37.331Z,14.00
2022-09-16T23:21:11.358Z,13.72
2022-09-16T23:23:45.239Z,13.72
2022-09-16T23:26:19.002Z,13.69
2022-09-16T23:28:54.073Z,13.75
2022-09-16T23:31:28.192Z,13.60
2022-09-16T23:34:00.782Z,13.59
2022-09-16T23:36:34.793Z,13.60
2022-09-16T23:39:07.916Z,13.59
2022-09-16T23:41:41.412Z,13.70
2022-09-16T23:44:15.764Z,13.57
2022-09-16T23:46:47.983Z,13.65
2022-09-16T23:49:20.925Z,13.69
2022-09-16T23:51:53.012Z,13.65
2022-09-16T23:54:25.002Z,13.63
2022-09-16T23:56:57.398Z,13.42
2022-09-16T23:59:29.341Z,13.54
